Time;durP1;ratioP1;P1;durP2;ratioP2;P2;SDS_P1;SDS_P2;PMS_P1;PMS_P2;Temp;Humidity;BMP_temperature;BMP_pressure;BME280_temperature;BME280_humidity;BME280_pressure;Samples;Min_cycle;Max_cycle;Signal;HPM_P1;HPM_P2
2021/04/15 00:00:46;;;;;;;9.93;8.57;;;5.10;99.90;;;;;;5055181;28;20214;-53
2021/04/15 00:03:22;;;;;;;11.17;8.43;;;5.10;99.90;;;;;;5055339;28;20168;-46
2021/04/15 00:05:48;;;;;;;9.97;7.47;;;5.00;99.90;;;;;;5055507;28;20189;-57
2021/04/15 00:08:15;;;;;;;9.57;7.73;;;5.00;99.90;;;;;;5054915;28;20172;-48
2021/04/15 00:10:46;;;;;;;9.30;7.00;;;5.00;99.90;;;;;;5054917;28;20554;-50
2021/04/15 00:13:20;;;;;;;9.57;7.67;;;5.00;99.90;;;;;;5054796;28;20176;-51
2021/04/15 00:15:45;;;;;;;8.43;6.80;;;4.90;99.90;;;;;;5055020;28;20575;-47
2021/04/15 00:18:11;;;;;;;9.23;7.10;;;4.80;99.90;;;;;;5055423;28;20564;-47
2021/04/15 00:20:36;;;;;;;8.77;6.90;;;4.70;99.90;;;;;;5055344;28;20281;-52
2021/04/15 00:23:02;;;;;;;7.37;6.17;;;4.70;99.90;;;;;;5054449;28;20186;-57
2021/04/15 00:25:28;;;;;;;9.40;6.83;;;4.60;99.90;;;;;;5054747;28;20175;-48
2021/04/15 00:27:54;;;;;;;8.63;6.50;;;4.60;99.90;;;;;;5055107;28;20258;-46
2021/04/15 00:30:21;;;;;;;9.00;7.43;;;4.50;99.90;;;;;;5054601;28;20270;-47
2021/04/15 00:32:46;;;;;;;6.77;5.80;;;4.50;99.90;;;;;;5054684;28;20182;-54
2021/04/15 00:35:13;;;;;;;9.17;6.70;;;4.50;99.90;;;;;;5054807;28;20179;-49
2021/04/15 00:37:38;;;;;;;6.90;5.93;;;4.50;99.90;;;;;;5054557;28;20233;-46
2021/04/15 00:40:06;;;;;;;8.77;7.27;;;4.40;99.90;;;;;;5054222;28;20211;-52
2021/04/15 00:42:32;;;;;;;7.70;6.50;;;4.30;99.90;;;;;;5054358;28;20596;-48
2021/04/15 00:45:05;;;;;;;8.13;6.47;;;4.10;99.90;;;;;;5054420;28;20202;-47
2021/04/15 00:47:31;;;;;;;7.63;6.20;;;4.10;99.90;;;;;;5054637;28;20635;-47
2021/04/15 00:50:01;;;;;;;7.20;5.83;;;3.90;99.90;;;;;;5054813;28;20264;-55
2021/04/15 00:52:32;;;;;;;6.63;5.80;;;3.70;99.90;;;;;;5053932;28;20543;-46
2021/04/15 00:55:11;;;;;;;8.90;6.07;;;3.70;99.90;;;;;;5054189;28;20213;-53
2021/04/15 00:57:39;;;;;;;7.77;6.10;;;3.70;99.90;;;;;;5054170;28;20171;-46
2021/04/15 01:00:08;;;;;;;8.63;5.93;;;3.70;99.90;;;;;;5054505;28;20496;-56
2021/04/15 01:02:34;;;;;;;9.23;6.30;;;3.80;99.90;;;;;;5053784;28;20209;-56
2021/04/15 01:05:10;;;;;;;7.30;6.00;;;3.90;99.90;;;;;;5054202;28;20183;-52
2021/04/15 01:07:36;;;;;;;7.80;5.93;;;3.90;99.90;;;;;;5053818;28;20751;-55
2021/04/15 01:10:04;;;;;;;8.10;5.90;;;4.00;99.90;;;;;;5054379;28;20218;-45
2021/04/15 01:12:54;;;;;;;9.07;6.60;;;4.00;99.90;;;;;;5052851;28;20203;-53
2021/04/15 01:15:41;;;;;;;7.77;6.13;;;4.00;99.90;;;;;;5057675;28;20274;-52
2021/04/15 01:18:19;;;;;;;7.93;5.60;;;4.10;99.90;;;;;;5062495;28;20271;-53
2021/04/15 01:21:06;;;;;;;7.17;5.90;;;4.10;99.90;;;;;;5058139;28;20681;-54
2021/04/15 01:24:04;;;;;;;7.47;6.07;;;4.20;99.90;;;;;;5060107;28;20191;-54
2021/04/15 01:26:56;;;;;;;9.17;6.60;;;4.20;99.90;;;;;;5033126;28;20259;-46
2021/04/15 01:29:33;;;;;;;8.03;6.73;;;4.10;99.90;;;;;;5063476;28;20186;-54
2021/04/15 01:32:09;;;;;;;9.10;7.00;;;4.10;99.90;;;;;;5062266;28;20265;-46
2021/04/15 01:35:03;;;;;;;9.60;6.60;;;4.10;99.90;;;;;;5061720;28;20183;-58
2021/04/15 01:37:34;;;;;;;8.37;6.40;;;4.10;99.90;;;;;;5064169;28;20573;-48
2021/04/15 01:40:17;;;;;;;7.10;6.07;;;4.00;99.90;;;;;;5063088;28;20265;-46
2021/04/15 01:43:01;;;;;;;6.60;5.90;;;4.10;99.90;;;;;;5063301;28;20620;-48
2021/04/15 01:45:28;;;;;;;7.70;6.10;;;4.10;99.90;;;;;;5064770;28;20174;-46
2021/04/15 01:48:00;;;;;;;8.73;7.03;;;4.00;99.90;;;;;;5067665;28;20178;-46
2021/04/15 01:50:32;;;;;;;9.67;7.23;;;4.00;99.90;;;;;;5066597;28;20185;-53
2021/04/15 01:53:04;;;;;;;8.70;7.30;;;4.00;99.90;;;;;;5066376;28;20182;-58
2021/04/15 01:55:38;;;;;;;9.60;7.13;;;4.00;99.90;;;;;;5067111;28;20272;-57
2021/04/15 01:58:17;;;;;;;9.30;7.40;;;3.90;99.90;;;;;;5065211;28;20271;-55
2021/04/15 02:00:46;;;;;;;10.17;7.33;;;3.90;99.90;;;;;;5067967;28;20293;-48
2021/04/15 02:03:18;;;;;;;7.90;6.50;;;3.90;99.90;;;;;;5061112;28;20654;-48
2021/04/15 02:05:46;;;;;;;9.03;6.33;;;3.70;99.90;;;;;;5057818;28;20195;-56
2021/04/15 02:08:16;;;;;;;8.13;6.53;;;3.70;99.90;;;;;;5057637;28;20224;-52
2021/04/15 02:10:49;;;;;;;8.07;5.67;;;3.60;99.90;;;;;;5057623;28;20163;-49
2021/04/15 02:13:17;;;;;;;7.40;5.63;;;3.50;99.90;;;;;;5057434;28;20221;-59
2021/04/15 02:15:48;;;;;;;6.57;5.30;;;3.60;99.90;;;;;;5057141;28;20191;-53
2021/04/15 02:18:37;;;;;;;8.30;5.80;;;3.50;99.90;;;;;;5057346;28;20237;-53
2021/04/15 02:21:14;;;;;;;7.67;6.40;;;3.40;99.90;;;;;;5058921;28;20211;-53
2021/04/15 02:23:50;;;;;;;7.87;5.50;;;3.30;99.90;;;;;;5068188;28;20183;-50
2021/04/15 02:26:21;;;;;;;7.97;6.37;;;3.30;99.90;;;;;;5060889;28;20248;-54
2021/04/15 02:28:56;;;;;;;7.27;5.97;;;3.30;99.90;;;;;;5062283;28;20199;-55
2021/04/15 02:31:33;;;;;;;8.20;5.70;;;3.30;99.90;;;;;;5065170;28;20174;-52
2021/04/15 02:34:06;;;;;;;7.47;5.50;;;3.30;99.90;;;;;;5069748;28;20420;-53
2021/04/15 02:36:44;;;;;;;6.07;5.30;;;3.30;99.90;;;;;;5066955;28;20539;-55
2021/04/15 02:39:16;;;;;;;6.87;6.03;;;3.30;99.90;;;;;;5067981;28;20490;-47
2021/04/15 02:41:43;;;;;;;7.23;5.70;;;3.40;99.90;;;;;;5060548;28;20960;-53
2021/04/15 02:44:18;;;;;;;7.27;5.87;;;3.40;99.90;;;;;;5067593;28;20413;-48
2021/04/15 02:46:48;;;;;;;7.00;5.73;;;3.30;99.90;;;;;;5065878;28;20440;-48
2021/04/15 02:49:17;;;;;;;7.73;5.77;;;3.40;99.90;;;;;;5058527;28;20456;-51
2021/04/15 02:52:08;;;;;;;7.20;5.40;;;3.40;99.90;;;;;;5058181;28;20436;-51
2021/04/15 02:54:38;;;;;;;6.60;5.57;;;3.30;99.90;;;;;;5056457;28;20218;-48
2021/04/15 02:57:08;;;;;;;5.80;5.20;;;3.20;99.90;;;;;;5060862;28;20445;-54
2021/04/15 02:59:49;;;;;;;5.83;5.23;;;3.30;99.90;;;;;;5075661;28;20745;-48
2021/04/15 03:02:38;;;;;;;7.60;5.77;;;3.20;99.90;;;;;;5076213;28;20440;-53
2021/04/15 03:05:12;;;;;;;7.37;5.90;;;3.00;99.90;;;;;;5056394;28;20473;-54
2021/04/15 03:07:40;;;;;;;7.43;5.60;;;2.90;99.90;;;;;;5056313;28;21174;-55
2021/04/15 03:10:13;;;;;;;7.47;5.23;;;2.90;99.90;;;;;;5056191;28;20892;-46
2021/04/15 03:12:42;;;;;;;6.97;5.63;;;2.90;99.90;;;;;;5055629;28;20402;-48
2021/04/15 03:15:13;;;;;;;8.63;5.90;;;3.00;99.90;;;;;;5064699;28;20436;-51
2021/04/15 03:17:43;;;;;;;5.90;5.30;;;3.00;99.90;;;;;;5075735;28;20432;-46
2021/04/15 03:20:25;;;;;;;6.30;5.30;;;3.00;99.90;;;;;;5075187;28;20455;-58
2021/04/15 03:22:57;;;;;;;11.03;6.10;;;2.90;99.90;;;;;;5074606;28;20409;-48
2021/04/15 03:25:23;;;;;;;8.10;5.73;;;2.90;99.90;;;;;;5076043;28;20417;-51
2021/04/15 03:28:23;;;;;;;9.43;5.83;;;2.90;99.90;;;;;;5075772;28;20424;-47
2021/04/15 03:31:06;;;;;;;7.33;5.27;;;2.90;99.90;;;;;;5033713;28;20269;-52
2021/04/15 03:33:34;;;;;;;6.63;5.67;;;2.90;99.90;;;;;;5032328;28;20418;-51
2021/04/15 03:36:07;;;;;;;6.03;5.33;;;2.80;99.90;;;;;;5032404;28;21283;-57
2021/04/15 03:38:38;;;;;;;7.80;6.07;;;2.80;99.90;;;;;;5033024;28;20414;-53
2021/04/15 03:41:09;;;;;;;9.23;6.10;;;2.80;99.90;;;;;;5033484;28;20486;-53
2021/04/15 03:43:41;;;;;;;7.80;5.70;;;2.70;99.90;;;;;;5033521;28;20419;-46
2021/04/15 03:46:33;;;;;;;7.93;5.73;;;2.70;99.90;;;;;;5033329;28;20470;-54
2021/04/15 03:49:11;;;;;;;8.43;6.07;;;2.60;99.90;;;;;;5032925;28;20415;-48
2021/04/15 03:51:52;;;;;;;8.37;6.13;;;2.60;99.90;;;;;;5032592;28;20497;-52
2021/04/15 03:54:24;;;;;;;8.27;6.07;;;2.60;99.90;;;;;;5032131;28;20418;-57
2021/04/15 03:56:54;;;;;;;7.10;5.60;;;2.70;99.90;;;;;;5032780;28;20438;-51
2021/04/15 03:59:47;;;;;;;7.93;5.83;;;2.70;99.90;;;;;;5032291;28;21255;-51
2021/04/15 04:02:22;;;;;;;7.13;5.63;;;2.70;99.90;;;;;;5030306;28;20465;-53
2021/04/15 04:04:51;;;;;;;7.97;5.60;;;2.60;99.90;;;;;;5030983;28;20418;-58
2021/04/15 04:07:37;;;;;;;8.13;5.70;;;2.60;99.90;;;;;;5055336;28;20436;-50
2021/04/15 04:10:16;;;;;;;7.27;5.60;;;2.60;99.90;;;;;;5074441;28;20415;-57
2021/04/15 04:12:47;;;;;;;7.63;5.97;;;2.60;99.90;;;;;;5073526;28;20470;-55
2021/04/15 04:15:14;;;;;;;7.43;5.53;;;2.60;99.90;;;;;;5073206;28;20401;-46
2021/04/15 04:18:01;;;;;;;5.83;5.17;;;2.70;99.90;;;;;;5056536;28;20422;-52
2021/04/15 04:20:33;;;;;;;7.23;5.70;;;2.70;99.90;;;;;;5067493;28;21046;-48
2021/04/15 04:23:23;;;;;;;8.67;5.53;;;2.60;99.90;;;;;;5073136;28;20507;-48
2021/04/15 04:26:00;;;;;;;5.83;5.27;;;2.60;99.90;;;;;;5073899;28;20424;-49
2021/04/15 04:28:37;;;;;;;7.57;5.50;;;2.60;99.90;;;;;;5060329;28;20516;-48
2021/04/15 04:31:21;;;;;;;7.00;5.40;;;2.60;99.90;;;;;;5067873;28;20570;-52
2021/04/15 04:33:50;;;;;;;7.87;5.40;;;2.60;99.90;;;;;;5067970;28;20435;-48
2021/04/15 04:36:18;;;;;;;7.00;5.47;;;2.60;99.90;;;;;;5060433;28;20461;-48
2021/04/15 04:38:44;;;;;;;7.13;5.10;;;2.60;99.90;;;;;;5054772;28;20475;-53
2021/04/15 04:41:25;;;;;;;7.80;5.63;;;2.60;99.90;;;;;;5054212;28;20457;-54
2021/04/15 04:44:03;;;;;;;7.23;5.67;;;2.70;99.90;;;;;;5054495;28;20393;-55
2021/04/15 04:46:46;;;;;;;6.40;5.30;;;2.60;99.90;;;;;;5054769;28;20527;-50
2021/04/15 04:49:30;;;;;;;5.53;4.90;;;2.50;99.90;;;;;;5054686;28;20410;-48
2021/04/15 04:52:02;;;;;;;6.40;5.60;;;2.60;99.90;;;;;;5054093;28;20409;-48
2021/04/15 04:54:28;;;;;;;7.37;5.07;;;2.60;99.90;;;;;;5054354;28;20417;-54
2021/04/15 04:57:00;;;;;;;8.17;5.50;;;2.60;99.90;;;;;;5058265;28;20461;-46
2021/04/15 04:59:33;;;;;;;6.50;4.90;;;2.70;99.90;;;;;;5069381;28;20182;-49
2021/04/15 05:01:58;;;;;;;6.97;5.73;;;2.70;99.90;;;;;;5058377;28;20459;-55
2021/04/15 05:04:27;;;;;;;7.80;5.23;;;2.70;99.90;;;;;;5061334;28;20417;-55
2021/04/15 05:07:01;;;;;;;6.43;5.73;;;2.80;99.90;;;;;;5067469;28;20199;-58
2021/04/15 05:09:34;;;;;;;7.17;5.33;;;2.80;99.90;;;;;;5053636;28;20749;-58
2021/04/15 05:12:06;;;;;;;7.87;5.70;;;2.80;99.90;;;;;;5053944;28;20413;-48
2021/04/15 05:14:32;;;;;;;8.27;6.30;;;2.80;99.90;;;;;;5054163;28;20426;-54
2021/04/15 05:17:12;;;;;;;8.37;5.83;;;2.80;99.90;;;;;;5055126;28;20444;-51
2021/04/15 05:19:38;;;;;;;8.10;6.00;;;2.80;99.90;;;;;;5067288;28;20410;-53
2021/04/15 05:22:06;;;;;;;8.30;5.37;;;2.80;99.90;;;;;;5055015;28;20475;-51
2021/04/15 05:24:43;;;;;;;8.60;5.90;;;2.90;99.90;;;;;;5071464;28;20204;-47
2021/04/15 05:27:11;;;;;;;9.07;5.70;;;3.00;99.90;;;;;;5061554;28;20528;-52
2021/04/15 05:29:41;;;;;;;7.57;5.73;;;3.00;99.90;;;;;;5051472;28;20875;-50
2021/04/15 05:32:11;;;;;;;7.73;5.90;;;3.10;99.90;;;;;;5060985;28;20429;-51
2021/04/15 05:34:50;;;;;;;8.73;5.87;;;3.20;99.90;;;;;;5050851;28;20420;-48
2021/04/15 05:37:20;;;;;;;7.87;5.43;;;3.30;99.90;;;;;;5071348;28;20557;-49
2021/04/15 05:39:47;;;;;;;6.87;5.80;;;3.30;99.90;;;;;;5071872;28;20714;-47
2021/04/15 05:42:28;;;;;;;9.40;5.67;;;3.50;99.90;;;;;;5071952;28;20420;-53
2021/04/15 05:44:59;;;;;;;7.77;5.47;;;3.50;99.90;;;;;;5073985;28;20175;-56
2021/04/15 05:47:48;;;;;;;8.93;5.53;;;3.60;99.90;;;;;;5073724;28;20542;-51
2021/04/15 05:50:35;;;;;;;7.43;5.33;;;3.60;99.90;;;;;;5062127;28;20881;-45
2021/04/15 05:53:08;;;;;;;7.50;5.80;;;3.50;99.90;;;;;;5053243;28;20248;-47
2021/04/15 05:55:41;;;;;;;7.83;6.17;;;3.70;99.90;;;;;;5054176;28;20203;-51
2021/04/15 05:58:20;;;;;;;7.20;5.80;;;3.80;99.90;;;;;;5052727;28;20179;-54
2021/04/15 06:00:52;;;;;;;6.87;5.33;;;3.70;99.90;;;;;;5056980;28;20234;-49
2021/04/15 06:03:23;;;;;;;8.20;6.03;;;3.80;99.90;;;;;;5063782;28;20186;-50
2021/04/15 06:05:59;;;;;;;8.17;5.50;;;3.70;99.90;;;;;;5064149;28;20202;-49
2021/04/15 06:08:28;;;;;;;8.30;6.50;;;3.80;99.90;;;;;;5053130;28;20187;-45
2021/04/15 06:11:18;;;;;;;8.10;6.37;;;3.90;99.90;;;;;;5065486;28;20201;-48
2021/04/15 06:13:48;;;;;;;7.83;6.17;;;4.10;99.90;;;;;;5054489;28;20198;-50
2021/04/15 06:16:29;;;;;;;6.53;5.67;;;4.30;99.90;;;;;;5068095;28;20210;-53
2021/04/15 06:19:16;;;;;;;9.63;6.50;;;4.30;99.90;;;;;;5053703;28;20630;-52
2021/04/15 06:21:56;;;;;;;6.77;5.67;;;4.40;99.90;;;;;;5052927;28;20218;-49
2021/04/15 06:24:27;;;;;;;7.37;5.80;;;4.50;99.90;;;;;;5053108;28;20265;-54
2021/04/15 06:26:55;;;;;;;6.80;5.80;;;4.50;99.90;;;;;;5052501;28;20206;-55
2021/04/15 06:29:31;;;;;;;7.43;6.00;;;4.70;99.90;;;;;;5054602;28;20179;-53
2021/04/15 06:32:01;;;;;;;7.20;6.43;;;4.90;99.90;;;;;;5055856;28;20171;-51
2021/04/15 06:34:27;;;;;;;9.70;6.90;;;5.00;99.90;;;;;;5055922;28;20214;-50
2021/04/15 06:37:03;;;;;;;11.43;6.73;;;5.20;99.90;;;;;;5056540;28;20230;-51
2021/04/15 06:39:53;;;;;;;7.97;5.73;;;5.30;99.90;;;;;;5056750;28;20179;-47
2021/04/15 06:42:38;;;;;;;8.70;6.83;;;5.40;99.90;;;;;;5057188;28;20179;-47
2021/04/15 06:45:40;;;;;;;7.53;5.90;;;5.50;99.90;;;;;;5057102;28;20244;-47
2021/04/15 06:48:34;;;;;;;7.03;5.90;;;5.50;99.90;;;;;;5057006;28;20228;-48
2021/04/15 06:51:26;;;;;;;7.67;6.57;;;5.70;99.90;;;;;;5056643;28;20266;-54
2021/04/15 06:54:03;;;;;;;8.97;6.23;;;6.00;99.90;;;;;;5056924;28;20187;-52
2021/04/15 06:56:47;;;;;;;7.53;5.83;;;6.30;99.90;;;;;;5055068;28;20207;-46
2021/04/15 07:00:00;;;;;;;10.30;6.03;;;6.60;99.90;;;;;;5056455;28;20530;-46
2021/04/15 07:02:40;;;;;;;9.67;6.47;;;6.80;99.90;;;;;;5017935;28;20200;-53
2021/04/15 07:05:41;;;;;;;7.30;6.07;;;7.10;99.90;;;;;;5056269;28;20217;-46
2021/04/15 07:08:11;;;;;;;7.77;6.40;;;7.40;99.40;;;;;;5055982;28;20213;-53
2021/04/15 07:10:41;;;;;;;8.67;6.10;;;7.50;99.10;;;;;;5056174;28;20178;-52
2021/04/15 07:13:29;;;;;;;7.43;6.30;;;7.50;98.80;;;;;;5056426;28;20179;-46
2021/04/15 07:16:32;;;;;;;8.30;5.93;;;7.40;99.20;;;;;;5056689;28;20234;-46
2021/04/15 07:19:35;;;;;;;7.87;5.73;;;7.40;98.60;;;;;;5056474;28;20179;-52
2021/04/15 07:22:37;;;;;;;8.50;5.50;;;7.60;98.80;;;;;;5055965;28;20203;-46
2021/04/15 07:25:22;;;;;;;9.77;6.33;;;7.70;98.90;;;;;;5056203;28;20513;-54
2021/04/15 07:28:19;;;;;;;6.90;6.20;;;7.80;98.30;;;;;;5056786;28;20181;-48
2021/04/15 07:31:10;;;;;;;9.37;6.60;;;7.80;97.60;;;;;;5055787;28;20570;-48
2021/04/15 07:34:03;;;;;;;8.97;6.90;;;7.60;99.90;;;;;;5048549;28;20573;-46
2021/04/15 07:36:43;;;;;;;7.97;6.37;;;7.20;99.80;;;;;;5055705;28;20221;-47
2021/04/15 07:39:39;;;;;;;8.10;6.53;;;7.00;99.90;;;;;;5054699;28;20684;-52
2021/04/15 07:42:36;;;;;;;8.67;6.17;;;7.00;99.00;;;;;;5055370;28;20230;-48
2021/04/15 07:45:22;;;;;;;7.43;6.50;;;7.00;99.30;;;;;;5055735;28;20225;-47
2021/04/15 07:48:24;;;;;;;6.27;5.07;;;6.90;99.80;;;;;;5055737;28;20503;-47
2021/04/15 07:51:08;;;;;;;5.20;4.30;;;6.80;99.90;;;;;;5055746;28;20174;-47
2021/04/15 07:54:01;;;;;;;4.73;4.23;;;6.80;96.00;;;;;;5055469;28;20297;-46
2021/04/15 07:56:29;;;;;;;4.73;3.83;;;6.90;97.30;;;;;;5055900;28;20221;-52
2021/04/15 07:59:13;;;;;;;5.50;4.30;;;7.30;97.00;;;;;;5054662;28;20209;-48
2021/04/15 08:01:48;;;;;;;5.07;3.90;;;7.40;94.70;;;;;;5053314;28;20237;-46
2021/04/15 08:04:51;;;;;;;5.60;4.47;;;7.70;96.10;;;;;;5055284;28;20182;-48
2021/04/15 08:07:25;;;;;;;5.60;3.60;;;7.90;95.20;;;;;;5054300;28;20187;-54
2021/04/15 08:09:58;;;;;;;3.70;3.40;;;8.00;94.10;;;;;;5054459;28;20187;-50
2021/04/15 08:12:39;;;;;;;4.43;3.00;;;8.10;93.30;;;;;;5055554;28;20171;-53
2021/04/15 08:15:31;;;;;;;4.50;2.97;;;8.00;93.10;;;;;;5055167;28;20182;-47
2021/04/15 08:18:34;;;;;;;4.60;3.57;;;8.10;93.30;;;;;;5054429;28;20519;-46
2021/04/15 08:21:18;;;;;;;5.67;4.03;;;8.20;91.80;;;;;;5054671;28;20547;-52
2021/04/15 08:24:24;;;;;;;6.17;4.10;;;8.30;91.70;;;;;;5055217;28;20634;-47
2021/04/15 08:27:11;;;;;;;5.30;4.00;;;8.20;93.50;;;;;;5055000;28;20186;-46
2021/04/15 08:29:48;;;;;;;6.40;4.27;;;8.30;93.10;;;;;;5054484;28;20193;-47
2021/04/15 08:32:26;;;;;;;4.23;2.83;;;8.30;94.40;;;;;;5054193;28;20171;-48
2021/04/15 08:35:18;;;;;;;5.50;3.63;;;8.60;91.90;;;;;;5052404;28;20177;-50
2021/04/15 08:38:19;;;;;;;5.97;3.80;;;8.90;92.10;;;;;;5051505;28;20720;-51
2021/04/15 08:40:59;;;;;;;5.87;5.27;;;9.10;91.10;;;;;;5052174;28;20194;-46
2021/04/15 08:43:54;;;;;;;8.57;4.83;;;9.10;91.60;;;;;;5051603;28;20170;-45
2021/04/15 08:46:31;;;;;;;5.13;4.57;;;9.00;92.70;;;;;;5052290;28;20215;-48
2021/04/15 08:49:10;;;;;;;6.57;4.40;;;9.10;94.10;;;;;;5052895;28;20212;-55
2021/04/15 08:52:15;;;;;;;5.97;4.37;;;9.20;91.80;;;;;;5051397;28;20191;-53
2021/04/15 08:54:50;;;;;;;5.00;3.67;;;9.00;93.60;;;;;;5053380;28;20535;-46
2021/04/15 08:57:52;;;;;;;4.13;3.10;;;9.00;86.40;;;;;;5052467;28;20222;-54
2021/04/15 09:00:26;;;;;;;4.33;2.50;;;9.00;88.40;;;;;;5053386;28;20642;-54
2021/04/15 09:03:13;;;;;;;2.43;2.13;;;9.20;89.10;;;;;;5053205;28;20170;-47
2021/04/15 09:06:01;;;;;;;3.90;2.40;;;9.40;86.40;;;;;;5052736;28;20732;-51
2021/04/15 09:08:52;;;;;;;3.70;1.97;;;9.50;84.20;;;;;;5054129;28;20178;-45
2021/04/15 09:11:55;;;;;;;2.87;2.60;;;9.60;82.20;;;;;;5046442;28;20186;-52
2021/04/15 09:14:29;;;;;;;3.40;2.43;;;9.90;82.20;;;;;;5053868;28;20174;-50
2021/04/15 09:17:09;;;;;;;3.90;1.80;;;10.00;81.10;;;;;;5053958;28;20205;-51
2021/04/15 09:19:45;;;;;;;2.63;1.80;;;10.30;79.40;;;;;;5053834;28;20200;-45
2021/04/15 09:22:29;;;;;;;2.27;1.83;;;10.60;76.10;;;;;;5053654;28;20206;-47
2021/04/15 09:25:09;;;;;;;2.67;2.00;;;10.90;74.30;;;;;;5053936;28;20253;-58
2021/04/15 09:27:58;;;;;;;7.47;2.80;;;11.10;73.70;;;;;;5053868;28;20167;-52
2021/04/15 09:30:46;;;;;;;3.30;2.30;;;11.20;73.70;;;;;;5053895;28;20182;-50
2021/04/15 09:33:39;;;;;;;2.60;2.40;;;11.30;69.00;;;;;;5053497;28;20163;-50
2021/04/15 09:36:06;;;;;;;3.97;2.80;;;10.90;74.10;;;;;;5053439;28;20214;-50
2021/04/15 09:38:41;;;;;;;3.10;2.80;;;10.80;74.10;;;;;;5053882;28;20209;-57
2021/04/15 09:41:43;;;;;;;4.23;2.80;;;10.60;74.30;;;;;;5053706;28;20225;-58
2021/04/15 09:44:33;;;;;;;5.23;4.30;;;10.50;75.40;;;;;;5053655;28;20178;-45
2021/04/15 09:47:22;;;;;;;4.83;4.07;;;9.70;79.70;;;;;;5054043;28;20198;-47
2021/04/15 09:49:53;;;;;;;4.90;3.70;;;8.90;81.40;;;;;;5053790;28;20166;-45
2021/04/15 09:52:28;;;;;;;4.83;3.60;;;8.30;83.10;;;;;;5053393;28;20517;-45
2021/04/15 09:55:05;;;;;;;4.60;3.50;;;8.10;86.00;;;;;;5053640;28;20163;-51
2021/04/15 09:57:45;;;;;;;5.00;3.50;;;8.40;83.20;;;;;;5053506;28;20232;-49
2021/04/15 10:00:33;;;;;;;4.07;3.30;;;8.80;82.50;;;;;;5053509;28;20282;-45
2021/04/15 10:03:20;;;;;;;4.80;3.97;;;9.50;82.90;;;;;;5055553;28;20199;-46
2021/04/15 10:06:15;;;;;;;7.30;3.90;;;9.80;81.00;;;;;;5057374;28;20195;-47
2021/04/15 10:08:56;;;;;;;4.10;3.30;;;9.90;83.40;;;;;;5057472;28;20197;-45
2021/04/15 10:11:50;;;;;;;4.13;3.30;;;9.60;80.10;;;;;;5057158;28;20171;-51
2021/04/15 10:14:40;;;;;;;4.33;3.30;;;9.60;87.40;;;;;;5057854;28;20534;-45
2021/04/15 10:17:05;;;;;;;5.60;3.30;;;9.50;90.90;;;;;;5057172;28;20279;-54
2021/04/15 10:19:47;;;;;;;6.47;3.57;;;9.30;92.20;;;;;;5056982;28;20199;-57
2021/04/15 10:22:42;;;;;;;4.77;3.40;;;9.10;93.00;;;;;;5056719;28;20211;-45
2021/04/15 10:25:15;;;;;;;5.33;3.80;;;9.00;93.90;;;;;;5056832;28;20156;-46
2021/04/15 10:28:07;;;;;;;3.80;3.50;;;8.90;94.00;;;;;;5056881;28;20179;-47
2021/04/15 10:31:10;;;;;;;5.30;3.73;;;8.70;94.90;;;;;;5057671;28;20194;-48
2021/04/15 10:34:10;;;;;;;4.80;3.67;;;8.50;95.50;;;;;;5056947;28;20266;-51
2021/04/15 10:36:50;;;;;;;6.67;4.97;;;8.00;95.00;;;;;;5056645;28;20207;-52
2021/04/15 10:39:57;;;;;;;5.43;4.57;;;7.70;95.70;;;;;;5056635;28;20257;-48
2021/04/15 10:43:00;;;;;;;6.83;5.17;;;7.40;96.60;;;;;;5056135;28;20198;-53
2021/04/15 10:45:42;;;;;;;6.47;4.83;;;7.30;98.10;;;;;;5056498;28;20504;-51
2021/04/15 10:48:35;;;;;;;7.47;4.90;;;7.10;99.50;;;;;;5057325;28;20186;-46
2021/04/15 10:51:05;;;;;;;6.60;5.00;;;6.90;99.90;;;;;;5056315;28;20167;-51
2021/04/15 10:53:43;;;;;;;5.50;4.77;;;6.70;99.90;;;;;;5056571;28;20171;-53
2021/04/15 10:56:12;;;;;;;6.73;4.50;;;6.70;99.90;;;;;;5056155;28;20240;-47
2021/04/15 10:58:48;;;;;;;5.73;4.30;;;6.80;99.90;;;;;;5056368;28;20174;-47
2021/04/15 11:01:58;;;;;;;4.80;3.90;;;6.90;99.90;;;;;;5056824;28;20209;-47
2021/04/15 11:04:29;;;;;;;4.93;4.37;;;7.00;99.70;;;;;;5040237;28;20187;-51
2021/04/15 11:07:08;;;;;;;4.20;3.67;;;7.30;98.00;;;;;;5056946;28;20242;-45
2021/04/15 11:09:35;;;;;;;3.47;3.13;;;7.60;97.50;;;;;;5056092;28;20183;-51
2021/04/15 11:12:13;;;;;;;6.70;3.80;;;8.20;98.70;;;;;;5056065;28;20194;-47
2021/04/15 11:14:43;;;;;;;4.60;3.63;;;8.70;97.70;;;;;;5055933;28;20570;-48
2021/04/15 11:17:30;;;;;;;3.53;3.20;;;9.40;93.90;;;;;;5055835;28;20226;-44
2021/04/15 11:20:20;;;;;;;3.73;3.40;;;10.30;91.60;;;;;;5055885;28;20193;-45
2021/04/15 11:22:54;;;;;;;4.10;3.70;;;11.30;88.00;;;;;;5056597;28;20171;-52
2021/04/15 11:25:19;;;;;;;5.90;3.70;;;11.70;84.60;;;;;;5054565;28;20262;-52
2021/04/15 11:27:45;;;;;;;4.17;3.50;;;11.60;88.00;;;;;;5055640;28;20257;-51
2021/04/15 11:30:33;;;;;;;3.80;3.47;;;11.70;88.40;;;;;;5053371;28;20167;-49
2021/04/15 11:32:59;;;;;;;3.53;2.70;;;11.80;90.20;;;;;;5053087;28;20648;-49
2021/04/15 11:35:25;;;;;;;3.33;2.73;;;11.70;88.50;;;;;;5053589;28;20187;-56
2021/04/15 11:38:06;;;;;;;4.70;2.50;;;11.50;88.20;;;;;;5053630;28;20175;-53
2021/04/15 11:40:37;;;;;;;4.00;2.50;;;11.30;89.40;;;;;;5053640;28;20281;-48
2021/04/15 11:43:37;;;;;;;2.63;2.40;;;11.10;87.80;;;;;;5055352;28;20623;-47
2021/04/15 11:46:42;;;;;;;7.00;4.17;;;11.00;86.40;;;;;;5054964;28;20183;-49
2021/04/15 11:49:19;;;;;;;5.27;3.37;;;10.80;89.20;;;;;;5046146;28;20222;-57
2021/04/15 11:51:53;;;;;;;3.77;3.10;;;10.60;87.80;;;;;;5055221;28;20181;-46
2021/04/15 11:54:42;;;;;;;4.57;3.63;;;10.20;90.30;;;;;;5055597;28;20213;-47
2021/04/15 11:57:31;;;;;;;32.50;22.47;;;9.60;91.60;;;;;;5011960;28;20208;-47
2021/04/15 12:00:00;;;;;;;4.53;3.33;;;9.50;94.50;;;;;;5013456;28;20223;-52
2021/04/15 12:02:38;;;;;;;3.70;3.37;;;9.80;92.80;;;;;;5013233;28;20585;-57
2021/04/15 12:05:26;;;;;;;4.30;3.53;;;10.30;93.10;;;;;;5013376;28;20662;-51
2021/04/15 12:08:02;;;;;;;3.50;3.20;;;11.40;90.30;;;;;;5013286;28;20291;-51
2021/04/15 12:10:31;;;;;;;3.87;2.87;;;12.40;85.10;;;;;;5013401;28;20174;-58
2021/04/15 12:13:01;;;;;;;3.80;3.10;;;13.60;80.90;;;;;;5012963;28;20200;-53
2021/04/15 12:15:36;;;;;;;3.80;2.97;;;15.00;82.40;;;;;;5013024;28;20189;-57
2021/04/15 12:18:28;;;;;;;2.70;2.50;;;15.90;79.00;;;;;;5013176;28;20267;-57
2021/04/15 12:21:08;;;;;;;4.60;3.13;;;17.40;74.40;;;;;;5013164;28;20209;-55
2021/04/15 12:23:55;;;;;;;3.03;2.73;;;18.60;70.40;;;;;;5013241;28;20264;-48
2021/04/15 12:26:26;;;;;;;3.38;2.88;;;18.90;61.60;;;;;;5011990;28;20196;-45
2021/04/15 12:29:06;;;;;;;2.95;2.30;;;18.60;58.00;;;;;;5013378;28;20211;-51
2021/04/15 12:32:01;;;;;;;3.90;2.85;;;19.20;61.60;;;;;;5011847;28;20182;-49
2021/04/15 12:34:36;;;;;;;2.90;2.70;;;18.40;57.00;;;;;;5039481;28;20217;-50
2021/04/15 12:37:18;;;;;;;36.10;26.87;;;16.70;64.70;;;;;;5054588;28;20212;-48
2021/04/15 12:39:51;;;;;;;43.70;30.13;;;15.90;66.90;;;;;;5055001;28;20227;-46
2021/04/15 12:42:21;;;;;;;59.53;41.87;;;14.80;70.10;;;;;;5054175;28;20283;-47
2021/04/15 12:44:48;;;;;;;18.07;16.23;;;13.70;72.50;;;;;;5054572;28;20171;-57
2021/04/15 12:47:16;;;;;;;4.00;3.20;;;14.70;75.70;;;;;;5054311;28;20198;-56
2021/04/15 12:49:41;;;;;;;3.47;2.60;;;12.90;75.30;;;;;;5054505;28;20636;-52
2021/04/15 12:52:12;;;;;;;4.37;3.17;;;12.80;77.60;;;;;;5054104;28;20172;-46
2021/04/15 12:54:41;;;;;;;2.73;2.53;;;12.70;76.50;;;;;;5054788;28;20175;-47
2021/04/15 12:57:09;;;;;;;3.23;2.53;;;12.50;77.30;;;;;;5053970;28;20618;-51
2021/04/15 12:59:42;;;;;;;2.80;2.20;;;12.20;75.50;;;;;;5054143;28;20256;-52
2021/04/15 13:02:26;;;;;;;2.90;2.20;;;11.80;77.10;;;;;;5054130;28;20225;-48
2021/04/15 13:05:08;;;;;;;2.60;2.40;;;11.40;76.40;;;;;;5054760;28;20179;-46
2021/04/15 13:07:42;;;;;;;2.73;2.50;;;11.10;76.90;;;;;;5054574;28;20214;-52
2021/04/15 13:10:13;;;;;;;2.40;2.17;;;11.20;75.90;;;;;;5054324;28;20178;-54
2021/04/15 13:12:47;;;;;;;4.17;2.50;;;11.20;74.70;;;;;;5054075;28;20236;-52
2021/04/15 13:15:25;;;;;;;2.07;1.90;;;10.90;70.70;;;;;;5054293;28;20167;-52
2021/04/15 13:17:53;;;;;;;2.57;2.10;;;10.60;68.20;;;;;;5054487;28;20228;-57
2021/04/15 13:20:18;;;;;;;2.57;2.13;;;10.60;69.80;;;;;;5054373;28;20195;-56
2021/04/15 13:22:46;;;;;;;2.33;2.13;;;10.70;70.80;;;;;;5053893;28;20250;-52
2021/04/15 13:25:18;;;;;;;2.20;1.83;;;11.00;67.10;;;;;;5054125;28;20167;-47
2021/04/15 13:27:57;;;;;;;3.17;1.90;;;11.30;68.40;;;;;;5054244;28;20171;-52
2021/04/15 13:30:40;;;;;;;2.50;2.10;;;11.80;65.00;;;;;;5054015;28;20193;-52
2021/04/15 13:33:23;;;;;;;2.60;2.00;;;12.20;63.30;;;;;;5053691;28;20206;-55
2021/04/15 13:35:57;;;;;;;3.00;2.30;;;12.50;65.30;;;;;;5053755;28;20218;-56
2021/04/15 13:38:29;;;;;;;2.30;2.10;;;12.40;67.20;;;;;;5057312;28;20185;-53
2021/04/15 13:41:21;;;;;;;1.97;1.87;;;12.00;68.10;;;;;;5058213;28;20210;-52
2021/04/15 13:44:12;;;;;;;2.73;2.27;;;11.80;67.10;;;;;;5065149;28;20202;-48
2021/04/15 13:46:41;;;;;;;2.67;2.30;;;11.60;66.30;;;;;;5087981;28;20221;-53
2021/04/15 13:49:09;;;;;;;3.63;2.30;;;11.90;69.60;;;;;;5091028;28;20177;-52
2021/04/15 13:51:57;;;;;;;4.33;2.63;;;11.30;67.60;;;;;;5098075;28;20169;-54
2021/04/15 13:54:33;;;;;;;2.80;2.20;;;11.00;69.60;;;;;;5097868;28;20173;-47